sensor_id;sensor_type;location;lat;lon;timestamp;P1;durP1;ratioP1;P2;durP2;ratioP2
56391;SDS011;42289;53.582;9.714;2022-11-20T00:00:06;6.15;;;3.90;;
56391;SDS011;42289;53.582;9.714;2022-11-20T00:02:33;8.48;;;3.75;;
56391;SDS011;42289;53.582;9.714;2022-11-20T00:05:00;7.60;;;4.20;;
56391;SDS011;42289;53.582;9.714;2022-11-20T00:07:27;6.38;;;3.63;;
56391;SDS011;42289;53.582;9.714;2022-11-20T00:09:53;8.60;;;4.38;;
56391;SDS011;42289;53.582;9.714;2022-11-20T00:12:20;8.25;;;4.32;;
56391;SDS011;42289;53.582;9.714;2022-11-20T00:14:46;8.32;;;4.20;;
56391;SDS011;42289;53.582;9.714;2022-11-20T00:17:12;9.02;;;3.85;;
56391;SDS011;42289;53.582;9.714;2022-11-20T00:19:39;6.60;;;3.70;;
56391;SDS011;42289;53.582;9.714;2022-11-20T00:22:07;7.60;;;3.85;;
56391;SDS011;42289;53.582;9.714;2022-11-20T00:24:33;7.82;;;4.18;;
56391;SDS011;42289;53.582;9.714;2022-11-20T00:26:59;7.30;;;4.05;;
56391;SDS011;42289;53.582;9.714;2022-11-20T00:29:26;6.72;;;3.45;;
56391;SDS011;42289;53.582;9.714;2022-11-20T00:31:52;8.15;;;4.00;;
56391;SDS011;42289;53.582;9.714;2022-11-20T00:34:19;8.45;;;3.63;;
56391;SDS011;42289;53.582;9.714;2022-11-20T00:36:45;6.57;;;3.63;;
56391;SDS011;42289;53.582;9.714;2022-11-20T00:39:13;8.00;;;4.03;;
56391;SDS011;42289;53.582;9.714;2022-11-20T00:41:39;8.77;;;3.97;;
56391;SDS011;42289;53.582;9.714;2022-11-20T00:44:05;8.85;;;3.75;;
56391;SDS011;42289;53.582;9.714;2022-11-20T00:46:32;6.38;;;3.67;;
56391;SDS011;42289;53.582;9.714;2022-11-20T00:48:59;6.70;;;3.63;;
56391;SDS011;42289;53.582;9.714;2022-11-20T00:51:26;7.25;;;4.00;;
56391;SDS011;42289;53.582;9.714;2022-11-20T00:53:54;7.60;;;4.50;;
56391;SDS011;42289;53.582;9.714;2022-11-20T00:56:22;7.03;;;4.13;;
56391;SDS011;42289;53.582;9.714;2022-11-20T00:58:49;7.97;;;4.00;;
56391;SDS011;42289;53.582;9.714;2022-11-20T01:01:16;10.52;;;5.03;;
56391;SDS011;42289;53.582;9.714;2022-11-20T01:03:44;7.55;;;4.20;;
56391;SDS011;42289;53.582;9.714;2022-11-20T01:06:12;8.00;;;4.30;;
56391;SDS011;42289;53.582;9.714;2022-11-20T01:08:41;9.40;;;5.30;;
56391;SDS011;42289;53.582;9.714;2022-11-20T01:11:08;12.48;;;5.13;;
56391;SDS011;42289;53.582;9.714;2022-11-20T01:13:37;8.90;;;4.90;;
56391;SDS011;42289;53.582;9.714;2022-11-20T01:16:04;9.43;;;4.50;;
56391;SDS011;42289;53.582;9.714;2022-11-20T01:18:32;9.00;;;4.88;;
56391;SDS011;42289;53.582;9.714;2022-11-20T01:21:00;9.50;;;4.20;;
56391;SDS011;42289;53.582;9.714;2022-11-20T01:23:29;8.60;;;4.40;;
56391;SDS011;42289;53.582;9.714;2022-11-20T01:25:56;9.75;;;4.60;;
56391;SDS011;42289;53.582;9.714;2022-11-20T01:28:23;8.55;;;4.55;;
56391;SDS011;42289;53.582;9.714;2022-11-20T01:30:50;7.80;;;4.32;;
56391;SDS011;42289;53.582;9.714;2022-11-20T01:33:17;8.00;;;4.15;;
56391;SDS011;42289;53.582;9.714;2022-11-20T01:35:43;8.13;;;4.22;;
56391;SDS011;42289;53.582;9.714;2022-11-20T01:38:10;8.27;;;4.28;;
56391;SDS011;42289;53.582;9.714;2022-11-20T01:40:36;11.13;;;4.35;;
56391;SDS011;42289;53.582;9.714;2022-11-20T01:43:09;11.05;;;4.57;;
56391;SDS011;42289;53.582;9.714;2022-11-20T01:46:06;8.07;;;4.22;;
56391;SDS011;42289;53.582;9.714;2022-11-20T01:48:41;7.65;;;4.20;;
56391;SDS011;42289;53.582;9.714;2022-11-20T01:51:14;7.67;;;4.53;;
56391;SDS011;42289;53.582;9.714;2022-11-20T01:53:47;10.13;;;4.60;;
56391;SDS011;42289;53.582;9.714;2022-11-20T01:56:15;9.95;;;4.50;;
56391;SDS011;42289;53.582;9.714;2022-11-20T01:58:43;9.00;;;4.85;;
56391;SDS011;42289;53.582;9.714;2022-11-20T02:01:15;8.27;;;4.40;;
56391;SDS011;42289;53.582;9.714;2022-11-20T02:03:42;8.55;;;4.07;;
56391;SDS011;42289;53.582;9.714;2022-11-20T02:06:11;8.82;;;4.82;;
56391;SDS011;42289;53.582;9.714;2022-11-20T02:08:42;9.65;;;4.55;;
56391;SDS011;42289;53.582;9.714;2022-11-20T02:11:09;8.50;;;4.35;;
56391;SDS011;42289;53.582;9.714;2022-11-20T02:13:35;9.80;;;4.57;;
56391;SDS011;42289;53.582;9.714;2022-11-20T02:16:11;11.50;;;4.68;;
56391;SDS011;42289;53.582;9.714;2022-11-20T02:18:41;8.23;;;4.90;;
56391;SDS011;42289;53.582;9.714;2022-11-20T02:21:11;8.55;;;4.57;;
56391;SDS011;42289;53.582;9.714;2022-11-20T02:26:33;10.70;;;4.35;;
56391;SDS011;42289;53.582;9.714;2022-11-20T02:29:04;7.70;;;4.22;;
56391;SDS011;42289;53.582;9.714;2022-11-20T02:31:34;8.02;;;4.15;;
56391;SDS011;42289;53.582;9.714;2022-11-20T02:34:03;7.35;;;4.00;;
56391;SDS011;42289;53.582;9.714;2022-11-20T02:36:29;7.38;;;3.88;;
56391;SDS011;42289;53.582;9.714;2022-11-20T02:38:58;7.97;;;4.25;;
56391;SDS011;42289;53.582;9.714;2022-11-20T02:41:31;8.93;;;4.15;;
56391;SDS011;42289;53.582;9.714;2022-11-20T02:43:59;8.82;;;4.30;;
56391;SDS011;42289;53.582;9.714;2022-11-20T02:46:25;7.78;;;4.45;;
56391;SDS011;42289;53.582;9.714;2022-11-20T02:48:52;6.95;;;3.70;;
56391;SDS011;42289;53.582;9.714;2022-11-20T02:51:18;6.97;;;3.88;;
56391;SDS011;42289;53.582;9.714;2022-11-20T02:53:44;8.18;;;4.30;;
56391;SDS011;42289;53.582;9.714;2022-11-20T02:56:11;6.75;;;4.03;;
56391;SDS011;42289;53.582;9.714;2022-11-20T02:58:39;7.38;;;4.05;;
56391;SDS011;42289;53.582;9.714;2022-11-20T03:01:05;9.32;;;4.35;;
56391;SDS011;42289;53.582;9.714;2022-11-20T03:03:31;8.75;;;3.92;;
56391;SDS011;42289;53.582;9.714;2022-11-20T03:06:00;7.78;;;4.25;;
56391;SDS011;42289;53.582;9.714;2022-11-20T03:08:26;9.05;;;4.18;;
56391;SDS011;42289;53.582;9.714;2022-11-20T03:10:53;9.15;;;4.18;;
56391;SDS011;42289;53.582;9.714;2022-11-20T03:13:19;7.47;;;4.00;;
56391;SDS011;42289;53.582;9.714;2022-11-20T03:15:47;7.70;;;4.57;;
56391;SDS011;42289;53.582;9.714;2022-11-20T03:18:13;8.75;;;4.20;;
56391;SDS011;42289;53.582;9.714;2022-11-20T03:20:40;8.25;;;4.20;;
56391;SDS011;42289;53.582;9.714;2022-11-20T03:23:06;8.48;;;4.38;;
56391;SDS011;42289;53.582;9.714;2022-11-20T03:25:33;8.75;;;4.53;;
56391;SDS011;42289;53.582;9.714;2022-11-20T03:28:00;6.75;;;3.85;;
56391;SDS011;42289;53.582;9.714;2022-11-20T03:30:26;8.10;;;4.10;;
56391;SDS011;42289;53.582;9.714;2022-11-20T03:32:54;8.05;;;4.35;;
56391;SDS011;42289;53.582;9.714;2022-11-20T03:35:21;9.82;;;4.30;;
56391;SDS011;42289;53.582;9.714;2022-11-20T03:37:47;8.50;;;4.38;;
56391;SDS011;42289;53.582;9.714;2022-11-20T03:40:14;8.07;;;4.60;;
56391;SDS011;42289;53.582;9.714;2022-11-20T03:42:40;8.27;;;4.63;;
56391;SDS011;42289;53.582;9.714;2022-11-20T03:45:13;8.25;;;4.07;;
56391;SDS011;42289;53.582;9.714;2022-11-20T03:47:40;10.35;;;4.22;;
56391;SDS011;42289;53.582;9.714;2022-11-20T03:50:09;8.85;;;4.40;;
56391;SDS011;42289;53.582;9.714;2022-11-20T03:52:37;8.40;;;4.22;;
56391;SDS011;42289;53.582;9.714;2022-11-20T03:55:04;8.40;;;4.65;;
56391;SDS011;42289;53.582;9.714;2022-11-20T03:57:30;7.82;;;4.13;;
56391;SDS011;42289;53.582;9.714;2022-11-20T03:59:57;8.93;;;4.45;;
56391;SDS011;42289;53.582;9.714;2022-11-20T04:02:24;8.68;;;4.38;;
56391;SDS011;42289;53.582;9.714;2022-11-20T04:04:53;7.90;;;4.13;;
56391;SDS011;42289;53.582;9.714;2022-11-20T04:07:21;9.68;;;4.72;;
56391;SDS011;42289;53.582;9.714;2022-11-20T04:09:47;7.75;;;4.05;;
56391;SDS011;42289;53.582;9.714;2022-11-20T04:12:14;7.63;;;4.45;;
56391;SDS011;42289;53.582;9.714;2022-11-20T04:14:40;7.55;;;3.95;;
56391;SDS011;42289;53.582;9.714;2022-11-20T04:17:06;8.27;;;4.43;;
56391;SDS011;42289;53.582;9.714;2022-11-20T04:19:33;9.98;;;4.15;;
56391;SDS011;42289;53.582;9.714;2022-11-20T04:21:59;9.18;;;4.18;;
56391;SDS011;42289;53.582;9.714;2022-11-20T04:24:27;9.52;;;4.70;;
56391;SDS011;42289;53.582;9.714;2022-11-20T04:26:54;8.68;;;4.53;;
56391;SDS011;42289;53.582;9.714;2022-11-20T04:29:20;9.85;;;4.53;;
56391;SDS011;42289;53.582;9.714;2022-11-20T04:31:47;9.05;;;4.38;;
56391;SDS011;42289;53.582;9.714;2022-11-20T04:34:13;7.63;;;4.05;;
56391;SDS011;42289;53.582;9.714;2022-11-20T04:36:40;9.35;;;4.45;;
56391;SDS011;42289;53.582;9.714;2022-11-20T04:39:11;6.85;;;3.72;;
56391;SDS011;42289;53.582;9.714;2022-11-20T04:41:40;8.05;;;4.40;;
56391;SDS011;42289;53.582;9.714;2022-11-20T04:44:06;8.55;;;4.40;;
56391;SDS011;42289;53.582;9.714;2022-11-20T04:46:34;9.52;;;4.35;;
56391;SDS011;42289;53.582;9.714;2022-11-20T04:49:01;9.50;;;4.40;;
56391;SDS011;42289;53.582;9.714;2022-11-20T04:51:28;11.38;;;4.72;;
56391;SDS011;42289;53.582;9.714;2022-11-20T04:53:55;9.32;;;4.78;;
56391;SDS011;42289;53.582;9.714;2022-11-20T04:56:21;8.93;;;4.40;;
56391;SDS011;42289;53.582;9.714;2022-11-20T04:58:49;8.35;;;4.60;;
56391;SDS011;42289;53.582;9.714;2022-11-20T05:01:17;9.15;;;4.38;;
56391;SDS011;42289;53.582;9.714;2022-11-20T05:03:45;10.45;;;4.65;;
56391;SDS011;42289;53.582;9.714;2022-11-20T05:06:12;11.02;;;4.22;;
56391;SDS011;42289;53.582;9.714;2022-11-20T05:08:40;8.65;;;4.40;;
56391;SDS011;42289;53.582;9.714;2022-11-20T05:11:07;7.82;;;4.22;;
56391;SDS011;42289;53.582;9.714;2022-11-20T05:13:35;8.55;;;4.35;;
56391;SDS011;42289;53.582;9.714;2022-11-20T05:16:03;8.55;;;4.47;;
56391;SDS011;42289;53.582;9.714;2022-11-20T05:18:32;8.07;;;4.05;;
56391;SDS011;42289;53.582;9.714;2022-11-20T05:20:59;8.63;;;4.45;;
56391;SDS011;42289;53.582;9.714;2022-11-20T05:23:25;9.43;;;4.38;;
56391;SDS011;42289;53.582;9.714;2022-11-20T05:25:53;9.15;;;4.80;;
56391;SDS011;42289;53.582;9.714;2022-11-20T05:28:19;9.07;;;4.65;;
56391;SDS011;42289;53.582;9.714;2022-11-20T05:30:46;9.70;;;4.38;;
56391;SDS011;42289;53.582;9.714;2022-11-20T05:33:14;7.88;;;3.95;;
56391;SDS011;42289;53.582;9.714;2022-11-20T05:35:41;7.22;;;4.03;;
56391;SDS011;42289;53.582;9.714;2022-11-20T05:38:07;7.22;;;4.35;;
56391;SDS011;42289;53.582;9.714;2022-11-20T05:40:33;8.50;;;4.07;;
56391;SDS011;42289;53.582;9.714;2022-11-20T05:43:00;8.07;;;4.38;;
56391;SDS011;42289;53.582;9.714;2022-11-20T05:45:27;11.20;;;4.15;;
56391;SDS011;42289;53.582;9.714;2022-11-20T05:47:57;10.18;;;4.55;;
56391;SDS011;42289;53.582;9.714;2022-11-20T05:50:26;8.88;;;4.35;;
56391;SDS011;42289;53.582;9.714;2022-11-20T05:52:54;9.90;;;4.85;;
56391;SDS011;42289;53.582;9.714;2022-11-20T05:55:20;10.68;;;4.97;;
56391;SDS011;42289;53.582;9.714;2022-11-20T05:57:47;8.63;;;4.45;;
56391;SDS011;42289;53.582;9.714;2022-11-20T06:00:14;7.95;;;4.32;;
56391;SDS011;42289;53.582;9.714;2022-11-20T06:02:41;10.65;;;4.95;;
56391;SDS011;42289;53.582;9.714;2022-11-20T06:05:07;8.68;;;4.32;;
56391;SDS011;42289;53.582;9.714;2022-11-20T06:07:35;10.02;;;4.80;;
56391;SDS011;42289;53.582;9.714;2022-11-20T06:10:02;8.30;;;4.90;;
56391;SDS011;42289;53.582;9.714;2022-11-20T06:12:30;7.47;;;4.30;;
56391;SDS011;42289;53.582;9.714;2022-11-20T06:17:30;9.02;;;4.95;;
56391;SDS011;42289;53.582;9.714;2022-11-20T06:20:01;10.93;;;5.07;;
56391;SDS011;42289;53.582;9.714;2022-11-20T06:22:27;8.10;;;4.93;;
56391;SDS011;42289;53.582;9.714;2022-11-20T06:24:59;9.45;;;4.75;;
56391;SDS011;42289;53.582;9.714;2022-11-20T06:27:26;7.03;;;4.13;;
56391;SDS011;42289;53.582;9.714;2022-11-20T06:29:54;9.20;;;4.40;;
56391;SDS011;42289;53.582;9.714;2022-11-20T06:32:23;8.55;;;4.50;;
56391;SDS011;42289;53.582;9.714;2022-11-20T06:35:15;10.05;;;4.50;;
56391;SDS011;42289;53.582;9.714;2022-11-20T06:37:59;10.25;;;4.60;;
56391;SDS011;42289;53.582;9.714;2022-11-20T06:40:40;10.65;;;5.25;;
56391;SDS011;42289;53.582;9.714;2022-11-20T06:43:11;8.40;;;4.80;;
56391;SDS011;42289;53.582;9.714;2022-11-20T06:45:51;10.95;;;5.10;;
56391;SDS011;42289;53.582;9.714;2022-11-20T06:48:25;12.23;;;6.05;;
56391;SDS011;42289;53.582;9.714;2022-11-20T06:50:52;9.23;;;5.00;;
56391;SDS011;42289;53.582;9.714;2022-11-20T06:59:27;8.00;;;4.35;;
56391;SDS011;42289;53.582;9.714;2022-11-20T07:01:56;11.55;;;4.60;;
56391;SDS011;42289;53.582;9.714;2022-11-20T07:04:41;8.32;;;4.55;;
56391;SDS011;42289;53.582;9.714;2022-11-20T07:07:24;9.63;;;4.88;;
56391;SDS011;42289;53.582;9.714;2022-11-20T07:09:54;9.50;;;5.35;;
56391;SDS011;42289;53.582;9.714;2022-11-20T07:12:23;9.52;;;4.53;;
56391;SDS011;42289;53.582;9.714;2022-11-20T07:14:52;10.00;;;5.18;;
56391;SDS011;42289;53.582;9.714;2022-11-20T07:20:08;9.05;;;4.57;;
56391;SDS011;42289;53.582;9.714;2022-11-20T07:22:37;11.73;;;5.18;;
56391;SDS011;42289;53.582;9.714;2022-11-20T07:25:05;10.02;;;5.47;;
56391;SDS011;42289;53.582;9.714;2022-11-20T07:27:32;12.27;;;5.70;;
56391;SDS011;42289;53.582;9.714;2022-11-20T07:30:00;14.43;;;5.63;;
56391;SDS011;42289;53.582;9.714;2022-11-20T07:32:27;10.77;;;5.95;;
56391;SDS011;42289;53.582;9.714;2022-11-20T07:34:54;12.73;;;5.90;;
56391;SDS011;42289;53.582;9.714;2022-11-20T07:37:20;13.55;;;6.30;;
56391;SDS011;42289;53.582;9.714;2022-11-20T07:39:47;11.48;;;5.70;;
56391;SDS011;42289;53.582;9.714;2022-11-20T07:42:14;11.95;;;6.30;;
56391;SDS011;42289;53.582;9.714;2022-11-20T07:44:41;11.27;;;5.90;;
56391;SDS011;42289;53.582;9.714;2022-11-20T07:47:09;11.02;;;6.13;;
56391;SDS011;42289;53.582;9.714;2022-11-20T07:49:35;10.77;;;5.75;;
56391;SDS011;42289;53.582;9.714;2022-11-20T07:52:02;11.45;;;5.28;;
56391;SDS011;42289;53.582;9.714;2022-11-20T07:54:28;11.15;;;5.30;;
56391;SDS011;42289;53.582;9.714;2022-11-20T07:56:55;10.85;;;5.50;;
56391;SDS011;42289;53.582;9.714;2022-11-20T07:59:21;10.07;;;5.40;;
56391;SDS011;42289;53.582;9.714;2022-11-20T08:01:48;11.10;;;5.47;;
56391;SDS011;42289;53.582;9.714;2022-11-20T08:04:16;8.68;;;4.60;;
56391;SDS011;42289;53.582;9.714;2022-11-20T08:06:43;13.45;;;5.40;;
56391;SDS011;42289;53.582;9.714;2022-11-20T08:09:09;10.52;;;5.50;;
56391;SDS011;42289;53.582;9.714;2022-11-20T08:11:36;10.98;;;5.10;;
56391;SDS011;42289;53.582;9.714;2022-11-20T08:14:20;8.05;;;4.40;;
56391;SDS011;42289;53.582;9.714;2022-11-20T08:16:47;9.88;;;4.88;;
56391;SDS011;42289;53.582;9.714;2022-11-20T08:19:16;11.68;;;4.85;;
56391;SDS011;42289;53.582;9.714;2022-11-20T08:21:44;10.75;;;5.18;;
56391;SDS011;42289;53.582;9.714;2022-11-20T08:24:12;9.38;;;5.10;;
56391;SDS011;42289;53.582;9.714;2022-11-20T08:26:38;8.40;;;4.85;;
56391;SDS011;42289;53.582;9.714;2022-11-20T08:29:07;9.10;;;5.20;;
56391;SDS011;42289;53.582;9.714;2022-11-20T08:31:36;9.02;;;4.75;;
56391;SDS011;42289;53.582;9.714;2022-11-20T09:05:25;6.93;;;3.85;;
56391;SDS011;42289;53.582;9.714;2022-11-20T09:07:55;6.68;;;3.83;;
56391;SDS011;42289;53.582;9.714;2022-11-20T09:10:22;6.80;;;4.10;;
56391;SDS011;42289;53.582;9.714;2022-11-20T09:12:48;8.00;;;4.32;;
56391;SDS011;42289;53.582;9.714;2022-11-20T09:15:16;7.32;;;4.03;;
56391;SDS011;42289;53.582;9.714;2022-11-20T09:17:49;7.72;;;4.18;;
56391;SDS011;42289;53.582;9.714;2022-11-20T09:20:17;7.40;;;4.38;;
56391;SDS011;42289;53.582;9.714;2022-11-20T09:22:45;6.70;;;4.10;;
56391;SDS011;42289;53.582;9.714;2022-11-20T09:25:12;8.27;;;4.20;;
56391;SDS011;42289;53.582;9.714;2022-11-20T09:27:39;8.40;;;4.57;;
56391;SDS011;42289;53.582;9.714;2022-11-20T09:30:08;7.32;;;4.25;;
56391;SDS011;42289;53.582;9.714;2022-11-20T09:32:36;8.68;;;4.55;;
56391;SDS011;42289;53.582;9.714;2022-11-20T09:35:05;7.15;;;4.10;;
56391;SDS011;42289;53.582;9.714;2022-11-20T09:37:32;7.13;;;3.75;;
56391;SDS011;42289;53.582;9.714;2022-11-20T09:40:00;6.88;;;3.92;;
56391;SDS011;42289;53.582;9.714;2022-11-20T09:42:30;7.38;;;4.30;;
56391;SDS011;42289;53.582;9.714;2022-11-20T09:45:17;7.32;;;3.70;;
56391;SDS011;42289;53.582;9.714;2022-11-20T09:47:59;7.72;;;4.05;;
56391;SDS011;42289;53.582;9.714;2022-11-20T09:50:37;5.88;;;3.25;;
56391;SDS011;42289;53.582;9.714;2022-11-20T09:53:13;6.22;;;3.53;;
56391;SDS011;42289;53.582;9.714;2022-11-20T09:55:48;5.25;;;2.95;;
56391;SDS011;42289;53.582;9.714;2022-11-20T09:58:25;4.70;;;2.70;;
56391;SDS011;42289;53.582;9.714;2022-11-20T10:00:57;3.92;;;2.47;;
56391;SDS011;42289;53.582;9.714;2022-11-20T10:03:33;5.25;;;2.85;;
56391;SDS011;42289;53.582;9.714;2022-11-20T10:06:07;4.50;;;2.50;;
56391;SDS011;42289;53.582;9.714;2022-11-20T10:08:39;6.72;;;3.00;;
56391;SDS011;42289;53.582;9.714;2022-11-20T10:11:13;5.20;;;2.55;;
56391;SDS011;42289;53.582;9.714;2022-11-20T10:13:49;5.57;;;2.20;;
56391;SDS011;42289;53.582;9.714;2022-11-20T10:16:29;5.30;;;2.70;;
56391;SDS011;42289;53.582;9.714;2022-11-20T10:19:08;4.90;;;2.58;;
56391;SDS011;42289;53.582;9.714;2022-11-20T10:21:52;4.60;;;2.70;;
56391;SDS011;42289;53.582;9.714;2022-11-20T10:30:21;4.32;;;2.63;;
56391;SDS011;42289;53.582;9.714;2022-11-20T10:32:50;5.18;;;2.53;;
56391;SDS011;42289;53.582;9.714;2022-11-20T10:35:21;4.30;;;2.70;;
56391;SDS011;42289;53.582;9.714;2022-11-20T10:37:55;5.75;;;3.25;;
56391;SDS011;42289;53.582;9.714;2022-11-20T10:40:28;5.07;;;2.85;;
56391;SDS011;42289;53.582;9.714;2022-11-20T10:43:04;4.70;;;2.95;;
56391;SDS011;42289;53.582;9.714;2022-11-20T10:45:42;5.32;;;3.30;;
56391;SDS011;42289;53.582;9.714;2022-11-20T10:48:19;5.63;;;3.33;;
56391;SDS011;42289;53.582;9.714;2022-11-20T10:53:42;6.75;;;3.47;;
56391;SDS011;42289;53.582;9.714;2022-11-20T10:56:25;5.82;;;3.40;;
56391;SDS011;42289;53.582;9.714;2022-11-20T10:59:04;6.53;;;3.70;;
56391;SDS011;42289;53.582;9.714;2022-11-20T11:01:49;7.85;;;4.00;;
56391;SDS011;42289;53.582;9.714;2022-11-20T11:04:28;7.00;;;3.50;;
56391;SDS011;42289;53.582;9.714;2022-11-20T11:07:05;5.38;;;3.25;;
56391;SDS011;42289;53.582;9.714;2022-11-20T11:09:38;5.53;;;3.00;;
56391;SDS011;42289;53.582;9.714;2022-11-20T11:12:09;5.55;;;3.33;;
56391;SDS011;42289;53.582;9.714;2022-11-20T11:14:45;4.88;;;3.15;;
56391;SDS011;42289;53.582;9.714;2022-11-20T11:17:18;7.10;;;3.45;;
56391;SDS011;42289;53.582;9.714;2022-11-20T11:19:58;5.47;;;3.20;;
56391;SDS011;42289;53.582;9.714;2022-11-20T11:22:43;6.18;;;3.40;;
56391;SDS011;42289;53.582;9.714;2022-11-20T11:25:18;5.72;;;3.50;;
56391;SDS011;42289;53.582;9.714;2022-11-20T11:27:49;5.75;;;3.53;;
56391;SDS011;42289;53.582;9.714;2022-11-20T11:30:22;6.07;;;3.42;;
56391;SDS011;42289;53.582;9.714;2022-11-20T11:32:50;6.60;;;4.00;;
56391;SDS011;42289;53.582;9.714;2022-11-20T11:35:20;7.63;;;3.92;;
56391;SDS011;42289;53.582;9.714;2022-11-20T11:37:49;6.15;;;3.80;;
56391;SDS011;42289;53.582;9.714;2022-11-20T11:40:19;8.93;;;3.85;;
56391;SDS011;42289;53.582;9.714;2022-11-20T11:42:56;10.43;;;4.32;;
56391;SDS011;42289;53.582;9.714;2022-11-20T11:45:26;5.45;;;3.45;;
56391;SDS011;42289;53.582;9.714;2022-11-20T11:47:52;7.53;;;3.65;;
56391;SDS011;42289;53.582;9.714;2022-11-20T11:50:21;5.32;;;3.42;;
56391;SDS011;42289;53.582;9.714;2022-11-20T11:55:40;6.20;;;3.70;;
56391;SDS011;42289;53.582;9.714;2022-11-20T11:58:13;5.93;;;3.10;;
56391;SDS011;42289;53.582;9.714;2022-11-20T12:00:47;7.00;;;3.15;;
56391;SDS011;42289;53.582;9.714;2022-11-20T12:03:21;5.13;;;2.97;;
56391;SDS011;42289;53.582;9.714;2022-11-20T12:05:55;5.88;;;3.03;;
56391;SDS011;42289;53.582;9.714;2022-11-20T12:08:29;5.20;;;2.80;;
56391;SDS011;42289;53.582;9.714;2022-11-20T12:10:59;5.00;;;2.63;;
56391;SDS011;42289;53.582;9.714;2022-11-20T12:13:34;4.47;;;2.42;;
56391;SDS011;42289;53.582;9.714;2022-11-20T12:16:11;3.70;;;2.25;;
56391;SDS011;42289;53.582;9.714;2022-11-20T12:18:40;4.30;;;2.58;;
56391;SDS011;42289;53.582;9.714;2022-11-20T12:21:12;4.70;;;2.83;;
56391;SDS011;42289;53.582;9.714;2022-11-20T12:23:50;3.55;;;2.05;;
56391;SDS011;42289;53.582;9.714;2022-11-20T12:26:43;3.65;;;2.20;;
56391;SDS011;42289;53.582;9.714;2022-11-20T12:29:19;5.05;;;2.55;;
56391;SDS011;42289;53.582;9.714;2022-11-20T12:32:01;5.18;;;2.40;;
56391;SDS011;42289;53.582;9.714;2022-11-20T12:34:52;5.88;;;3.20;;
56391;SDS011;42289;53.582;9.714;2022-11-20T12:37:34;6.82;;;3.85;;
56391;SDS011;42289;53.582;9.714;2022-11-20T12:40:13;5.22;;;3.13;;
56391;SDS011;42289;53.582;9.714;2022-11-20T12:42:57;4.63;;;2.83;;
56391;SDS011;42289;53.582;9.714;2022-11-20T12:45:59;4.93;;;2.83;;
56391;SDS011;42289;53.582;9.714;2022-11-20T12:48:49;5.53;;;2.90;;
56391;SDS011;42289;53.582;9.714;2022-11-20T12:54:08;5.25;;;3.10;;
56391;SDS011;42289;53.582;9.714;2022-11-20T12:56:53;6.10;;;3.00;;
56391;SDS011;42289;53.582;9.714;2022-11-20T12:59:32;7.47;;;3.30;;
56391;SDS011;42289;53.582;9.714;2022-11-20T13:02:10;6.30;;;2.92;;
56391;SDS011;42289;53.582;9.714;2022-11-20T13:04:55;6.07;;;3.13;;
56391;SDS011;42289;53.582;9.714;2022-11-20T13:07:38;5.60;;;3.13;;
56391;SDS011;42289;53.582;9.714;2022-11-20T13:10:11;5.13;;;3.00;;
56391;SDS011;42289;53.582;9.714;2022-11-20T13:12:44;5.60;;;3.25;;
56391;SDS011;42289;53.582;9.714;2022-11-20T13:18:07;5.88;;;3.20;;
56391;SDS011;42289;53.582;9.714;2022-11-20T13:20:37;6.18;;;3.17;;
56391;SDS011;42289;53.582;9.714;2022-11-20T13:23:08;5.20;;;2.97;;
56391;SDS011;42289;53.582;9.714;2022-11-20T13:25:35;7.28;;;3.00;;
56391;SDS011;42289;53.582;9.714;2022-11-20T13:28:05;7.03;;;3.25;;
56391;SDS011;42289;53.582;9.714;2022-11-20T13:30:55;5.45;;;2.92;;
56391;SDS011;42289;53.582;9.714;2022-11-20T13:33:25;6.60;;;3.30;;
56391;SDS011;42289;53.582;9.714;2022-11-20T13:36:02;5.22;;;3.03;;
56391;SDS011;42289;53.582;9.714;2022-11-20T13:38:39;5.85;;;3.45;;
56391;SDS011;42289;53.582;9.714;2022-11-20T13:41:22;7.63;;;3.20;;
56391;SDS011;42289;53.582;9.714;2022-11-20T13:43:59;5.22;;;3.20;;
56391;SDS011;42289;53.582;9.714;2022-11-20T13:46:35;6.10;;;3.20;;
56391;SDS011;42289;53.582;9.714;2022-11-20T13:49:06;5.13;;;3.10;;
56391;SDS011;42289;53.582;9.714;2022-11-20T13:51:37;7.10;;;3.00;;
56391;SDS011;42289;53.582;9.714;2022-11-20T13:54:16;4.70;;;3.00;;
56391;SDS011;42289;53.582;9.714;2022-11-20T13:57:13;4.63;;;2.85;;
56391;SDS011;42289;53.582;9.714;2022-11-20T14:00:02;5.93;;;3.03;;
56391;SDS011;42289;53.582;9.714;2022-11-20T14:02:35;4.57;;;2.70;;
56391;SDS011;42289;53.582;9.714;2022-11-20T14:05:02;5.28;;;3.03;;
56391;SDS011;42289;53.582;9.714;2022-11-20T14:07:34;5.63;;;2.70;;
56391;SDS011;42289;53.582;9.714;2022-11-20T14:10:03;4.68;;;3.00;;
56391;SDS011;42289;53.582;9.714;2022-11-20T14:12:31;5.70;;;3.20;;
56391;SDS011;42289;53.582;9.714;2022-11-20T14:14:59;5.78;;;3.25;;
56391;SDS011;42289;53.582;9.714;2022-11-20T14:17:29;6.65;;;3.42;;
56391;SDS011;42289;53.582;9.714;2022-11-20T14:19:58;5.68;;;3.47;;
56391;SDS011;42289;53.582;9.714;2022-11-20T14:22:27;4.55;;;2.90;;
56391;SDS011;42289;53.582;9.714;2022-11-20T14:25:06;5.18;;;3.20;;
56391;SDS011;42289;53.582;9.714;2022-11-20T14:27:47;5.97;;;2.90;;
56391;SDS011;42289;53.582;9.714;2022-11-20T14:30:18;7.18;;;3.05;;
56391;SDS011;42289;53.582;9.714;2022-11-20T14:32:47;6.35;;;3.53;;
56391;SDS011;42289;53.582;9.714;2022-11-20T14:35:16;6.32;;;3.20;;
56391;SDS011;42289;53.582;9.714;2022-11-20T14:37:46;8.00;;;2.88;;
56391;SDS011;42289;53.582;9.714;2022-11-20T14:40:25;4.88;;;2.95;;
56391;SDS011;42289;53.582;9.714;2022-11-20T14:42:54;5.35;;;3.05;;
56391;SDS011;42289;53.582;9.714;2022-11-20T14:45:21;5.75;;;2.80;;
56391;SDS011;42289;53.582;9.714;2022-11-20T14:47:48;5.32;;;2.95;;
56391;SDS011;42289;53.582;9.714;2022-11-20T14:50:17;6.38;;;3.33;;
56391;SDS011;42289;53.582;9.714;2022-11-20T14:52:50;5.78;;;2.95;;
56391;SDS011;42289;53.582;9.714;2022-11-20T14:55:29;6.40;;;3.50;;
56391;SDS011;42289;53.582;9.714;2022-11-20T14:57:58;6.28;;;3.13;;
56391;SDS011;42289;53.582;9.714;2022-11-20T15:00:26;5.45;;;2.92;;
56391;SDS011;42289;53.582;9.714;2022-11-20T15:02:53;5.20;;;2.83;;
56391;SDS011;42289;53.582;9.714;2022-11-20T15:05:20;9.00;;;4.00;;
56391;SDS011;42289;53.582;9.714;2022-11-20T15:07:48;5.72;;;3.30;;
56391;SDS011;42289;53.582;9.714;2022-11-20T15:10:21;6.50;;;3.25;;
56391;SDS011;42289;53.582;9.714;2022-11-20T15:12:50;5.53;;;3.30;;
56391;SDS011;42289;53.582;9.714;2022-11-20T15:15:20;6.43;;;3.30;;
56391;SDS011;42289;53.582;9.714;2022-11-20T15:17:49;6.95;;;3.58;;
56391;SDS011;42289;53.582;9.714;2022-11-20T15:20:16;5.30;;;3.13;;
56391;SDS011;42289;53.582;9.714;2022-11-20T15:22:43;5.35;;;3.13;;
56391;SDS011;42289;53.582;9.714;2022-11-20T15:25:13;5.68;;;3.50;;
56391;SDS011;42289;53.582;9.714;2022-11-20T15:27:43;7.90;;;4.00;;
56391;SDS011;42289;53.582;9.714;2022-11-20T15:30:16;5.47;;;3.35;;
56391;SDS011;42289;53.582;9.714;2022-11-20T15:32:44;6.50;;;3.35;;
56391;SDS011;42289;53.582;9.714;2022-11-20T15:35:11;6.68;;;3.65;;
56391;SDS011;42289;53.582;9.714;2022-11-20T15:37:39;5.88;;;3.42;;
56391;SDS011;42289;53.582;9.714;2022-11-20T15:40:06;6.63;;;3.83;;
56391;SDS011;42289;53.582;9.714;2022-11-20T15:42:36;6.22;;;3.78;;
56391;SDS011;42289;53.582;9.714;2022-11-20T15:45:02;8.18;;;3.90;;
56391;SDS011;42289;53.582;9.714;2022-11-20T15:47:31;6.18;;;3.45;;
56391;SDS011;42289;53.582;9.714;2022-11-20T15:49:59;6.63;;;3.70;;
56391;SDS011;42289;53.582;9.714;2022-11-20T15:52:26;6.65;;;3.90;;
56391;SDS011;42289;53.582;9.714;2022-11-20T15:54:52;6.30;;;3.90;;
56391;SDS011;42289;53.582;9.714;2022-11-20T15:57:19;6.18;;;3.60;;
56391;SDS011;42289;53.582;9.714;2022-11-20T15:59:48;6.47;;;3.90;;
56391;SDS011;42289;53.582;9.714;2022-11-20T16:02:14;5.60;;;3.10;;
56391;SDS011;42289;53.582;9.714;2022-11-20T16:04:45;4.95;;;3.22;;
56391;SDS011;42289;53.582;9.714;2022-11-20T16:07:12;6.90;;;3.72;;